Time;durP1;ratioP1;P1;durP2;ratioP2;P2;SDS_P1;SDS_P2;PMS_P1;PMS_P2;Temp;Humidity;BMP_temperature;BMP_pressure;BME280_temperature;BME280_humidity;BME280_pressure;Samples;Min_cycle;Max_cycle;Signal;HPM_P1;HPM_P2
2022/06/03 00:00:53;;;;;;;3.00;1.25;;;8.90;99.90;;;;;;5052895;28;20527;-73
2022/06/03 00:03:41;;;;;;;2.72;1.02;;;9.00;99.90;;;;;;5051903;28;20067;-74
2022/06/03 00:07:08;;;;;;;2.10;0.85;;;9.00;99.90;;;;;;5052852;28;20025;-75
2022/06/03 00:09:51;;;;;;;1.10;0.90;;;9.20;99.90;;;;;;4961698;28;20089;-72
2022/06/03 00:12:37;;;;;;;2.65;0.80;;;9.20;99.90;;;;;;5051241;28;20112;-75
2022/06/03 00:15:20;;;;;;;1.30;0.77;;;9.40;99.90;;;;;;5051909;28;20017;-75
2022/06/03 00:18:08;;;;;;;2.22;1.00;;;9.50;99.90;;;;;;5052466;28;20048;-73
2022/06/03 00:20:58;;;;;;;0.68;0.63;;;9.60;99.90;;;;;;5053266;28;20096;-76
2022/06/03 00:23:40;;;;;;;1.20;0.68;;;9.80;99.90;;;;;;5051826;28;20029;-71
2022/06/03 00:26:36;;;;;;;2.17;0.57;;;9.90;99.90;;;;;;5052279;28;20021;-71
2022/06/03 00:29:10;;;;;;;6.75;1.10;;;9.90;99.90;;;;;;5051416;28;20021;-70
2022/06/03 00:32:05;;;;;;;1.45;0.70;;;10.00;99.90;;;;;;5050367;28;20051;-75
2022/06/03 00:34:56;;;;;;;1.75;0.77;;;10.10;99.90;;;;;;5052607;28;20029;-75
2022/06/03 00:38:00;;;;;;;1.92;0.75;;;10.10;99.90;;;;;;5051356;28;20052;-72
2022/06/03 00:40:36;;;;;;;0.82;0.47;;;10.20;99.90;;;;;;5051585;28;20467;-72
2022/06/03 00:43:22;;;;;;;2.67;0.80;;;10.20;99.90;;;;;;5051308;28;20071;-75
2022/06/03 00:46:34;;;;;;;1.63;0.57;;;10.30;99.90;;;;;;5052146;28;20357;-70
2022/06/03 00:49:28;;;;;;;2.45;0.80;;;10.40;99.90;;;;;;5050806;28;20367;-72
2022/06/03 00:52:01;;;;;;;0.85;0.57;;;10.40;99.90;;;;;;5052504;28;20017;-74
2022/06/03 00:55:19;;;;;;;1.00;0.50;;;10.40;99.90;;;;;;5053080;28;20025;-70
2022/06/03 00:57:55;;;;;;;0.57;0.57;;;10.50;99.90;;;;;;5051451;28;20416;-75
2022/06/03 01:00:40;;;;;;;1.15;0.60;;;10.50;99.90;;;;;;5050708;28;20017;-69
2022/06/03 01:03:23;;;;;;;1.47;0.57;;;10.60;99.90;;;;;;5051324;28;20520;-72
2022/06/03 01:06:05;;;;;;;1.65;0.70;;;10.60;99.90;;;;;;5051761;28;20017;-70
2022/06/03 01:09:01;;;;;;;0.90;0.63;;;10.70;99.90;;;;;;5052087;28;20028;-75
2022/06/03 01:11:53;;;;;;;2.25;0.70;;;10.70;99.90;;;;;;5051059;28;20024;-73
2022/06/03 01:14:31;;;;;;;1.05;0.50;;;10.80;99.90;;;;;;5050436;28;20021;-71
2022/06/03 01:16:58;;;;;;;1.85;0.40;;;10.90;99.90;;;;;;5049918;28;20021;-75
2022/06/03 01:19:42;;;;;;;1.67;0.47;;;10.90;99.90;;;;;;5052437;28;20025;-71
2022/06/03 01:22:31;;;;;;;0.80;0.40;;;11.00;99.90;;;;;;5051163;28;20082;-71
2022/06/03 01:25:19;;;;;;;1.30;0.52;;;11.00;99.90;;;;;;5052572;28;20040;-72
2022/06/03 01:28:10;;;;;;;0.38;0.35;;;11.00;99.90;;;;;;5049279;28;20021;-75
2022/06/03 01:31:08;;;;;;;1.58;0.70;;;11.00;99.90;;;;;;5052559;28;20021;-74
2022/06/03 01:34:06;;;;;;;0.68;0.60;;;11.00;99.90;;;;;;5052384;28;20031;-75
2022/06/03 01:36:39;;;;;;;0.68;0.55;;;11.00;99.90;;;;;;5051805;28;20044;-75
2022/06/03 01:39:26;;;;;;;1.10;0.40;;;11.10;99.90;;;;;;5052684;28;20493;-76
2022/06/03 01:42:13;;;;;;;2.05;0.47;;;11.00;99.90;;;;;;5051729;28;20052;-71
2022/06/03 01:45:14;;;;;;;2.03;0.65;;;11.10;99.90;;;;;;5050157;28;20118;-75
2022/06/03 01:47:56;;;;;;;1.25;0.47;;;11.10;99.90;;;;;;5050168;28;20115;-75
2022/06/03 01:50:45;;;;;;;2.13;0.60;;;11.10;99.90;;;;;;5050645;28;20016;-76
2022/06/03 01:53:18;;;;;;;1.75;0.45;;;11.20;99.90;;;;;;5051701;28;20036;-70
2022/06/03 01:56:01;;;;;;;0.70;0.50;;;11.20;99.90;;;;;;5050738;28;20393;-70
2022/06/03 01:58:41;;;;;;;1.10;0.50;;;11.20;99.90;;;;;;5054127;28;20104;-70
2022/06/03 02:01:24;;;;;;;1.27;0.50;;;11.30;99.90;;;;;;5054816;28;20474;-75
2022/06/03 02:03:52;;;;;;;1.73;0.50;;;11.30;99.90;;;;;;5055521;28;20478;-71
2022/06/03 02:06:57;;;;;;;0.82;0.40;;;11.40;99.90;;;;;;5053690;28;20020;-71
2022/06/03 02:09:45;;;;;;;0.40;0.32;;;11.40;99.90;;;;;;5054150;28;20122;-71
2022/06/03 02:12:42;;;;;;;0.90;0.47;;;11.40;99.90;;;;;;5055298;28;20043;-75
2022/06/03 02:15:22;;;;;;;0.65;0.47;;;11.50;99.90;;;;;;5055092;28;20021;-75
2022/06/03 02:18:11;;;;;;;1.40;0.65;;;11.50;99.90;;;;;;5054808;28;20028;-75
2022/06/03 02:21:05;;;;;;;0.60;0.50;;;11.50;99.90;;;;;;5055925;28;20025;-75
2022/06/03 02:23:47;;;;;;;4.40;0.60;;;11.60;99.90;;;;;;5055185;28;20020;-75
2022/06/03 02:26:41;;;;;;;0.80;0.50;;;11.60;99.90;;;;;;5055429;28;20450;-71
2022/06/03 02:33:11;;;;;;;1.60;0.60;;;11.60;99.90;;;;;;5055288;28;20047;-70
2022/06/03 02:35:59;;;;;;;0.75;0.50;;;11.60;99.90;;;;;;5011257;28;20021;-74
2022/06/03 02:38:37;;;;;;;1.85;0.70;;;11.70;99.90;;;;;;5013813;28;20069;-75
2022/06/03 02:41:14;;;;;;;1.67;0.80;;;11.70;99.90;;;;;;5048568;28;20040;-70
2022/06/03 02:44:17;;;;;;;2.58;0.70;;;11.70;99.90;;;;;;5053199;28;20079;-71
2022/06/03 02:47:00;;;;;;;1.65;0.95;;;11.70;99.90;;;;;;5053577;28;20450;-75
2022/06/03 02:50:16;;;;;;;1.27;0.68;;;11.70;99.90;;;;;;5053944;28;20067;-70
2022/06/03 02:52:50;;;;;;;0.75;0.55;;;11.80;99.90;;;;;;4964497;28;20066;-73
2022/06/03 02:55:35;;;;;;;1.00;0.50;;;11.80;99.90;;;;;;4963850;28;20098;-71
2022/06/03 02:58:41;;;;;;;1.23;0.50;;;11.90;99.90;;;;;;5031212;28;20474;-76
2022/06/03 03:01:44;;;;;;;0.55;0.50;;;11.90;99.90;;;;;;5053882;28;20440;-70
2022/06/03 03:04:40;;;;;;;1.77;0.88;;;12.00;99.90;;;;;;5053997;28;20028;-70
2022/06/03 03:07:32;;;;;;;2.25;0.80;;;12.00;99.90;;;;;;5053201;28;20367;-71
2022/06/03 03:10:34;;;;;;;0.93;0.40;;;12.00;99.90;;;;;;5048829;28;20021;-72
2022/06/03 03:13:38;;;;;;;0.82;0.63;;;12.00;99.90;;;;;;5030609;28;20017;-75
2022/06/03 03:16:21;;;;;;;1.58;0.63;;;12.00;99.90;;;;;;5052328;28;20017;-72
2022/06/03 03:19:07;;;;;;;2.78;0.38;;;12.10;99.90;;;;;;5053768;28;20489;-76
2022/06/03 03:21:59;;;;;;;0.90;0.65;;;12.10;99.90;;;;;;5054113;28;20029;-70
2022/06/03 03:24:52;;;;;;;1.65;0.88;;;12.10;99.90;;;;;;5048637;28;20040;-70
2022/06/03 03:27:44;;;;;;;0.82;0.40;;;12.10;99.90;;;;;;5033113;28;20091;-70
2022/06/03 03:30:29;;;;;;;8.75;0.75;;;12.20;99.90;;;;;;5047305;28;20020;-71
2022/06/03 03:32:59;;;;;;;2.92;0.43;;;12.10;99.90;;;;;;5051784;28;20037;-72
2022/06/03 03:35:27;;;;;;;0.85;0.60;;;12.10;99.90;;;;;;5053456;28;20021;-71
2022/06/03 03:37:54;;;;;;;0.38;0.30;;;12.10;99.90;;;;;;5051295;28;20433;-71
2022/06/03 03:40:45;;;;;;;1.05;0.50;;;12.00;99.90;;;;;;5051785;28;20029;-71
2022/06/03 03:43:45;;;;;;;2.78;0.80;;;12.00;99.90;;;;;;5051441;28;20025;-71
2022/06/03 03:46:39;;;;;;;1.70;0.50;;;12.00;99.90;;;;;;5051597;28;20500;-74
2022/06/03 03:49:42;;;;;;;0.50;0.50;;;12.00;99.90;;;;;;5052794;28;20398;-72
2022/06/03 03:52:53;;;;;;;0.43;0.40;;;12.00;99.90;;;;;;5053009;28;20546;-76
2022/06/03 03:55:58;;;;;;;0.85;0.60;;;11.90;99.90;;;;;;5049818;28;20049;-77
2022/06/03 03:59:02;;;;;;;2.03;0.70;;;11.90;99.90;;;;;;5050010;28;20028;-77
2022/06/03 04:01:51;;;;;;;2.40;0.50;;;11.90;99.90;;;;;;5050725;28;20444;-75
2022/06/03 04:04:49;;;;;;;0.73;0.50;;;11.90;99.90;;;;;;5052631;28;20029;-77
2022/06/03 04:07:38;;;;;;;1.35;0.68;;;11.90;99.90;;;;;;5053073;28;20489;-71
2022/06/03 04:10:41;;;;;;;0.98;0.50;;;11.90;99.90;;;;;;5050226;28;20100;-74
2022/06/03 04:13:29;;;;;;;0.50;0.40;;;11.80;99.90;;;;;;5050435;28;21723;-69
2022/06/03 04:16:02;;;;;;;1.80;0.45;;;11.80;99.90;;;;;;5051561;28;20047;-72
2022/06/03 04:19:10;;;;;;;3.50;0.50;;;11.80;99.90;;;;;;5051336;28;20359;-75
2022/06/03 04:21:37;;;;;;;0.30;0.30;;;11.80;99.90;;;;;;5049717;28;20029;-73
2022/06/03 04:24:38;;;;;;;0.52;0.35;;;11.80;99.90;;;;;;5052211;28;20063;-71
2022/06/03 04:27:41;;;;;;;1.35;0.40;;;11.80;99.90;;;;;;5050088;28;20032;-72
2022/06/03 04:30:26;;;;;;;0.93;0.47;;;11.80;99.90;;;;;;5049887;28;20396;-73
2022/06/03 04:33:18;;;;;;;1.55;0.47;;;11.80;99.90;;;;;;5050605;28;20025;-70
2022/06/03 04:36:14;;;;;;;1.77;0.70;;;11.80;99.90;;;;;;5051621;28;20013;-76
2022/06/03 04:39:13;;;;;;;0.77;0.40;;;11.90;99.90;;;;;;5041305;28;20064;-75
2022/06/03 04:42:05;;;;;;;1.13;0.68;;;11.90;99.90;;;;;;5051025;28;20029;-74
2022/06/03 04:44:39;;;;;;;1.55;0.65;;;11.90;99.90;;;;;;5051495;28;20041;-76
2022/06/03 04:47:24;;;;;;;4.30;0.82;;;11.80;99.90;;;;;;5050492;28;20026;-69
2022/06/03 04:50:14;;;;;;;2.60;0.60;;;11.80;99.90;;;;;;5050635;28;20489;-71
2022/06/03 04:52:59;;;;;;;0.52;0.40;;;11.80;99.90;;;;;;5040192;28;20064;-70
2022/06/03 04:55:57;;;;;;;1.13;0.60;;;11.70;99.90;;;;;;5050286;28;20090;-76
2022/06/03 04:58:33;;;;;;;1.50;0.60;;;11.80;99.90;;;;;;5051846;28;20250;-75
2022/06/03 05:01:18;;;;;;;0.93;0.40;;;11.70;99.90;;;;;;5051871;28;20021;-77
2022/06/03 05:04:24;;;;;;;0.90;0.65;;;11.70;99.90;;;;;;5052213;28;20472;-72
2022/06/03 05:06:58;;;;;;;0.85;0.57;;;11.70;99.90;;;;;;5048374;28;20025;-71
2022/06/03 05:09:54;;;;;;;6.32;1.08;;;11.60;99.90;;;;;;5049003;28;20099;-76
2022/06/03 05:12:48;;;;;;;0.60;0.40;;;11.60;99.90;;;;;;5049111;28;20066;-74
2022/06/03 05:15:36;;;;;;;1.52;0.57;;;11.60;99.90;;;;;;5050217;28;20044;-75
2022/06/03 05:18:40;;;;;;;3.42;0.77;;;11.50;99.90;;;;;;5051692;28;20470;-74
2022/06/03 05:21:44;;;;;;;0.88;0.50;;;11.50;99.90;;;;;;5047995;28;20029;-74
2022/06/03 05:24:54;;;;;;;3.20;0.50;;;11.50;99.90;;;;;;5049732;28;20021;-75
2022/06/03 05:27:37;;;;;;;1.10;0.60;;;11.40;99.90;;;;;;5050781;28;20056;-75
2022/06/03 05:30:16;;;;;;;0.77;0.40;;;11.40;99.90;;;;;;5052050;28;20028;-75
2022/06/03 05:33:14;;;;;;;1.88;1.00;;;11.40;99.90;;;;;;5051535;28;20025;-75
2022/06/03 05:36:04;;;;;;;2.25;0.60;;;11.40;99.90;;;;;;5052330;28;20481;-76
2022/06/03 05:38:52;;;;;;;1.17;0.98;;;11.30;99.90;;;;;;5051156;28;20541;-75
2022/06/03 05:45:04;;;;;;;3.65;1.05;;;11.30;99.90;;;;;;5053182;28;20116;-71
2022/06/03 05:47:48;;;;;;;2.42;0.88;;;11.30;99.90;;;;;;5054023;28;20028;-74
2022/06/03 05:50:25;;;;;;;1.42;0.65;;;11.30;99.90;;;;;;5049044;28;20017;-75
2022/06/03 05:53:29;;;;;;;0.77;0.60;;;11.20;99.90;;;;;;5052975;28;20028;-70
2022/06/03 05:56:31;;;;;;;0.60;0.45;;;11.20;99.90;;;;;;5053072;28;20040;-70
2022/06/03 05:59:09;;;;;;;0.63;0.38;;;11.10;99.90;;;;;;5036675;28;20116;-71
2022/06/03 06:01:56;;;;;;;2.00;0.68;;;11.10;99.90;;;;;;5046083;28;20099;-72
2022/06/03 06:04:45;;;;;;;1.00;0.55;;;11.10;99.90;;;;;;5053018;28;20370;-74
2022/06/03 06:07:34;;;;;;;0.93;0.85;;;11.10;99.90;;;;;;5052267;28;20025;-71
2022/06/03 06:10:23;;;;;;;0.55;0.30;;;11.10;99.90;;;;;;5053253;28;20074;-74
2022/06/03 06:13:13;;;;;;;0.82;0.30;;;11.10;99.90;;;;;;5054472;28;20099;-74
2022/06/03 06:16:03;;;;;;;1.20;0.38;;;11.00;99.90;;;;;;5053303;28;20374;-74
2022/06/03 06:18:43;;;;;;;1.45;0.60;;;11.00;99.90;;;;;;5055026;28;20017;-71
2022/06/03 06:21:31;;;;;;;1.20;0.60;;;11.00;99.90;;;;;;5054799;28;20036;-70
2022/06/03 06:24:23;;;;;;;1.95;0.50;;;11.00;99.90;;;;;;5050760;28;20018;-70
2022/06/03 06:27:18;;;;;;;1.48;0.52;;;11.00;99.90;;;;;;5053277;28;20013;-72
2022/06/03 06:30:13;;;;;;;1.53;0.50;;;10.90;99.90;;;;;;5052831;28;20017;-74
2022/06/03 06:33:10;;;;;;;3.28;0.93;;;10.80;99.90;;;;;;5053127;28;20278;-71
2022/06/03 06:36:05;;;;;;;0.90;0.63;;;10.70;99.90;;;;;;5044143;28;20040;-75
2022/06/03 06:39:17;;;;;;;0.70;0.50;;;10.70;99.90;;;;;;5054577;28;20044;-76
2022/06/03 06:42:09;;;;;;;2.22;0.57;;;10.60;99.90;;;;;;5051384;28;20485;-74
2022/06/03 06:44:36;;;;;;;1.75;1.25;;;10.60;99.90;;;;;;5050867;28;20020;-74
2022/06/03 06:47:19;;;;;;;1.52;0.82;;;10.50;99.90;;;;;;5053289;28;20021;-71
2022/06/03 06:50:14;;;;;;;0.93;0.40;;;10.50;99.90;;;;;;5052936;28;20056;-70
2022/06/03 06:52:47;;;;;;;2.70;0.50;;;10.40;99.90;;;;;;5053807;28;20025;-73
2022/06/03 06:55:23;;;;;;;1.40;0.50;;;10.40;99.90;;;;;;5054282;28;20017;-75
2022/06/03 06:57:59;;;;;;;0.88;0.40;;;10.30;99.90;;;;;;5054205;28;20025;-72
2022/06/03 07:00:28;;;;;;;4.65;1.27;;;10.30;99.90;;;;;;5052086;28;20465;-74
2022/06/03 07:03:25;;;;;;;1.40;0.80;;;10.30;99.90;;;;;;5050064;28;20384;-75
2022/06/03 07:06:17;;;;;;;0.85;0.50;;;10.30;99.90;;;;;;5052651;28;20488;-75
2022/06/03 07:08:59;;;;;;;0.88;0.52;;;10.30;99.90;;;;;;5053376;28;20122;-75
2022/06/03 07:11:37;;;;;;;2.03;0.80;;;10.30;99.90;;;;;;5053166;28;20458;-75
2022/06/03 07:14:25;;;;;;;0.50;0.50;;;10.30;99.90;;;;;;5054170;28;20032;-74
2022/06/03 07:20:17;;;;;;;0.85;0.77;;;10.30;99.90;;;;;;5053466;28;20551;-71
2022/06/03 07:22:56;;;;;;;1.98;0.80;;;10.20;99.90;;;;;;5050320;28;20547;-73
2022/06/03 07:25:29;;;;;;;2.55;0.65;;;10.20;99.90;;;;;;5052409;28;20021;-75
2022/06/03 07:28:00;;;;;;;1.38;0.50;;;10.20;99.90;;;;;;5051289;28;20665;-73
2022/06/03 07:31:04;;;;;;;2.53;0.90;;;10.10;99.90;;;;;;5052554;28;20103;-74
2022/06/03 07:33:31;;;;;;;0.80;0.40;;;10.10;99.90;;;;;;5051812;28;20116;-74
2022/06/03 07:36:05;;;;;;;0.50;0.47;;;10.10;99.90;;;;;;5050824;28;20021;-74
2022/06/03 07:38:49;;;;;;;1.17;0.68;;;10.00;99.90;;;;;;5052713;28;20363;-74
2022/06/03 07:41:23;;;;;;;1.30;0.85;;;10.00;99.90;;;;;;5051032;28;20028;-75
2022/06/03 07:44:11;;;;;;;1.10;0.60;;;10.00;99.90;;;;;;5053482;28;20042;-75
2022/06/03 07:46:49;;;;;;;0.60;0.43;;;9.90;99.90;;;;;;5052383;28;20017;-76
2022/06/03 07:49:18;;;;;;;1.48;0.82;;;9.90;99.90;;;;;;5051992;28;20025;-75
2022/06/03 07:51:51;;;;;;;0.68;0.50;;;9.80;99.90;;;;;;5051972;28;20064;-76
2022/06/03 07:54:32;;;;;;;5.30;0.80;;;9.80;99.90;;;;;;5051051;28;20027;-73
2022/06/03 07:57:07;;;;;;;1.58;0.52;;;9.80;99.90;;;;;;5052836;28;20043;-77
2022/06/03 07:59:38;;;;;;;0.95;0.77;;;9.80;99.90;;;;;;5052111;28;20469;-77
2022/06/03 08:02:25;;;;;;;1.27;0.55;;;9.70;99.90;;;;;;5051551;28;20029;-76
2022/06/03 08:05:15;;;;;;;3.35;0.60;;;9.60;99.90;;;;;;5049946;28;20509;-76
2022/06/03 08:11:12;;;;;;;1.48;0.65;;;9.60;99.90;;;;;;5046619;28;20158;-75
2022/06/03 08:13:42;;;;;;;1.00;0.35;;;9.60;99.90;;;;;;5034258;28;20017;-75
2022/06/03 08:16:34;;;;;;;0.93;0.50;;;9.60;99.90;;;;;;5033882;28;20163;-76
2022/06/03 08:19:18;;;;;;;0.65;0.45;;;9.60;99.90;;;;;;5052589;28;20562;-75
2022/06/03 08:21:54;;;;;;;0.45;0.40;;;9.60;99.90;;;;;;5055487;28;20132;-76
2022/06/03 08:24:26;;;;;;;1.77;0.70;;;9.60;99.90;;;;;;5054412;28;20017;-75
2022/06/03 08:27:03;;;;;;;0.52;0.50;;;9.60;99.90;;;;;;5054092;28;20071;-73
2022/06/03 08:29:45;;;;;;;1.52;0.60;;;9.60;99.90;;;;;;5054072;28;20021;-75
2022/06/03 08:32:36;;;;;;;0.68;0.55;;;9.60;99.90;;;;;;5053541;28;20464;-75
2022/06/03 08:35:10;;;;;;;2.03;0.95;;;9.60;99.90;;;;;;5046754;28;20029;-75
2022/06/03 08:37:50;;;;;;;1.00;0.80;;;9.50;99.90;;;;;;5053599;28;20055;-75
2022/06/03 08:40:23;;;;;;;0.57;0.40;;;9.60;99.90;;;;;;5053676;28;20051;-72
2022/06/03 08:43:08;;;;;;;0.82;0.50;;;9.50;99.90;;;;;;5053980;28;20107;-75
2022/06/03 08:45:52;;;;;;;1.30;0.60;;;9.50;99.90;;;;;;5053675;28;20045;-74
2022/06/03 08:48:26;;;;;;;2.33;0.70;;;9.50;99.90;;;;;;5041627;28;20025;-71
2022/06/03 08:51:06;;;;;;;0.68;0.60;;;9.60;99.90;;;;;;5053607;28;20036;-72
2022/06/03 08:53:44;;;;;;;1.48;0.40;;;9.60;99.90;;;;;;5052522;28;20021;-75
2022/06/03 08:56:20;;;;;;;0.85;0.40;;;9.50;99.90;;;;;;5053948;28;20374;-76
2022/06/03 08:58:57;;;;;;;2.10;0.50;;;9.60;99.90;;;;;;5053239;28;20374;-75
2022/06/03 09:01:35;;;;;;;1.48;0.45;;;9.60;99.90;;;;;;5053527;28;20091;-76
2022/06/03 09:04:20;;;;;;;3.30;0.43;;;9.60;99.90;;;;;;5052977;28;20029;-76
2022/06/03 09:07:10;;;;;;;0.52;0.47;;;9.60;99.90;;;;;;5053271;28;20025;-75
2022/06/03 09:10:14;;;;;;;2.17;0.50;;;9.60;99.90;;;;;;5053062;28;20024;-72
2022/06/03 09:13:22;;;;;;;1.58;0.70;;;9.60;99.90;;;;;;5068577;28;20397;-77
2022/06/03 09:15:51;;;;;;;0.63;0.47;;;9.60;99.90;;;;;;5052728;28;20029;-75
2022/06/03 09:18:40;;;;;;;3.90;0.75;;;9.60;99.90;;;;;;5048461;28;20035;-75
2022/06/03 09:21:12;;;;;;;1.30;0.50;;;9.60;99.90;;;;;;5051486;28;20037;-74
2022/06/03 09:23:48;;;;;;;1.13;0.50;;;9.60;99.90;;;;;;5051970;28;20382;-72
2022/06/03 09:26:36;;;;;;;1.85;0.80;;;9.60;99.90;;;;;;5049782;28;20021;-71
2022/06/03 09:29:06;;;;;;;1.23;0.80;;;9.60;99.90;;;;;;5046749;28;20485;-73
2022/06/03 09:31:37;;;;;;;1.42;0.60;;;9.50;99.90;;;;;;5050219;28;20031;-71
2022/06/03 09:34:07;;;;;;;1.67;0.65;;;9.60;99.90;;;;;;5049912;28;20017;-72
2022/06/03 09:36:35;;;;;;;1.08;0.70;;;9.50;99.90;;;;;;5049921;28;20037;-75
2022/06/03 09:39:11;;;;;;;0.85;0.60;;;9.50;99.90;;;;;;5049866;28;20052;-76
2022/06/03 09:41:55;;;;;;;1.02;0.55;;;9.50;99.90;;;;;;5050878;28;20033;-73
2022/06/03 09:44:25;;;;;;;1.20;0.80;;;9.40;99.90;;;;;;5051387;28;20124;-71
2022/06/03 09:47:11;;;;;;;4.97;0.82;;;9.50;99.90;;;;;;5049750;28;20535;-75
2022/06/03 09:49:39;;;;;;;2.15;0.68;;;9.40;99.90;;;;;;5048545;28;20071;-73
2022/06/03 09:52:13;;;;;;;1.45;0.70;;;9.50;99.90;;;;;;5050252;28;20474;-74
2022/06/03 09:54:43;;;;;;;1.02;0.47;;;9.40;99.90;;;;;;5050204;28;20115;-75
2022/06/03 09:57:16;;;;;;;2.22;0.98;;;9.40;99.90;;;;;;5051353;28;20009;-74
2022/06/03 10:00:10;;;;;;;2.20;0.52;;;9.40;99.90;;;;;;5050567;28;20028;-75
2022/06/03 10:02:37;;;;;;;1.08;0.85;;;9.40;99.90;;;;;;5049170;28;20033;-76
2022/06/03 10:05:06;;;;;;;3.28;0.90;;;9.30;99.90;;;;;;5047851;28;20075;-75
2022/06/03 10:07:35;;;;;;;1.08;0.47;;;9.30;99.90;;;;;;5050164;28;20021;-75
2022/06/03 10:13:01;;;;;;;1.52;0.50;;;9.30;99.90;;;;;;5051060;28;20032;-72
2022/06/03 10:15:44;;;;;;;0.68;0.50;;;9.30;99.90;;;;;;5050790;28;20470;-76
2022/06/03 10:18:41;;;;;;;0.85;0.40;;;9.30;99.90;;;;;;5051909;28;20025;-75
2022/06/03 10:21:10;;;;;;;1.10;0.50;;;9.30;99.90;;;;;;5053550;28;20021;-71
2022/06/03 10:23:52;;;;;;;0.52;0.40;;;9.30;99.90;;;;;;5051905;28;20021;-76
2022/06/03 10:26:36;;;;;;;0.50;0.50;;;9.30;99.90;;;;;;5053847;28;20032;-74
2022/06/03 10:29:25;;;;;;;0.90;0.40;;;9.30;99.90;;;;;;5054098;28;20025;-72
2022/06/03 10:31:55;;;;;;;0.30;0.30;;;9.30;99.90;;;;;;5054657;28;20386;-74
2022/06/03 10:34:28;;;;;;;0.30;0.30;;;9.20;99.90;;;;;;5052861;28;20009;-73
2022/06/03 10:36:57;;;;;;;0.57;0.40;;;9.20;99.90;;;;;;5053192;28;20131;-76
2022/06/03 10:39:30;;;;;;;1.35;0.50;;;9.20;99.90;;;;;;5052251;28;20015;-75
2022/06/03 10:42:00;;;;;;;0.90;0.40;;;9.20;99.90;;;;;;5052803;28;20520;-74
2022/06/03 10:44:33;;;;;;;0.75;0.50;;;9.20;99.90;;;;;;5053892;28;20028;-70
2022/06/03 10:47:19;;;;;;;0.47;0.47;;;9.20;99.90;;;;;;5052209;28;20082;-71
2022/06/03 10:49:59;;;;;;;1.25;0.40;;;9.20;99.90;;;;;;5051944;28;20386;-70
2022/06/03 11:01:40;;;;;;;0.40;0.40;;;9.20;99.90;;;;;;5053522;28;20120;-74
2022/06/03 11:04:07;;;;;;;1.13;0.52;;;9.10;99.90;;;;;;5054362;28;20079;-75
2022/06/03 11:06:38;;;;;;;0.75;0.60;;;9.20;99.90;;;;;;5052359;28;20066;-72
2022/06/03 11:09:10;;;;;;;0.60;0.40;;;9.20;99.90;;;;;;5050591;28;20023;-77
2022/06/03 11:11:45;;;;;;;1.25;0.88;;;9.10;99.90;;;;;;5050802;28;20471;-72
2022/06/03 11:14:25;;;;;;;1.00;0.63;;;9.10;99.90;;;;;;5051992;28;20017;-72
2022/06/03 11:17:00;;;;;;;1.95;0.55;;;9.20;99.90;;;;;;5052363;28;20025;-73
2022/06/03 11:19:31;;;;;;;0.73;0.43;;;9.20;99.90;;;;;;5051712;28;20029;-72
2022/06/03 11:22:36;;;;;;;1.83;0.90;;;9.20;99.90;;;;;;5049796;28;20045;-72
2022/06/03 11:25:22;;;;;;;0.60;0.50;;;9.20;99.90;;;;;;4971883;28;20100;-76
2022/06/03 11:28:18;;;;;;;0.52;0.40;;;9.20;99.90;;;;;;5047153;28;20029;-76
2022/06/03 11:31:14;;;;;;;1.17;0.50;;;9.20;99.90;;;;;;5051265;28;20491;-75
2022/06/03 11:33:51;;;;;;;4.53;0.60;;;9.20;99.90;;;;;;5046451;28;20474;-75
2022/06/03 11:36:42;;;;;;;0.65;0.50;;;9.30;99.90;;;;;;5051480;28;20028;-76
2022/06/03 11:39:37;;;;;;;2.05;0.63;;;9.20;99.90;;;;;;5049687;28;20044;-73
2022/06/03 11:42:10;;;;;;;0.90;0.60;;;9.20;99.90;;;;;;5051144;28;20029;-72
2022/06/03 11:44:43;;;;;;;1.92;1.02;;;9.30;99.90;;;;;;5051293;28;20028;-72
2022/06/03 11:47:28;;;;;;;0.50;0.45;;;9.20;99.90;;;;;;5051948;28;20044;-72
2022/06/03 11:49:56;;;;;;;0.52;0.47;;;9.20;99.90;;;;;;5051416;28;20462;-76
2022/06/03 11:52:24;;;;;;;0.82;0.77;;;9.30;99.90;;;;;;5053713;28;20371;-72
2022/06/03 11:54:52;;;;;;;1.63;0.80;;;9.30;99.90;;;;;;5048771;28;20075;-72
2022/06/03 11:57:21;;;;;;;0.80;0.52;;;9.30;99.90;;;;;;5051783;28;20055;-75
2022/06/03 12:00:19;;;;;;;1.30;0.50;;;9.30;99.90;;;;;;5050331;28;20039;-75
2022/06/03 12:03:01;;;;;;;2.38;1.02;;;9.30;99.90;;;;;;5051361;28;20037;-73
2022/06/03 12:05:55;;;;;;;1.23;0.57;;;9.30;99.90;;;;;;5052478;28;20021;-74
2022/06/03 12:08:58;;;;;;;1.67;0.50;;;9.30;99.90;;;;;;5053175;28;20588;-72
2022/06/03 12:14:34;;;;;;;2.00;0.80;;;9.30;99.90;;;;;;5049445;28;20027;-76
2022/06/03 12:17:10;;;;;;;1.45;0.60;;;9.30;99.90;;;;;;5050485;28;20493;-72
2022/06/03 12:19:42;;;;;;;1.52;0.60;;;9.30;99.90;;;;;;5050679;28;20495;-72
2022/06/03 12:22:20;;;;;;;1.25;0.52;;;9.30;99.90;;;;;;5048321;28;20543;-73
2022/06/03 12:24:52;;;;;;;2.00;0.47;;;9.30;99.90;;;;;;5051476;28;20546;-72
2022/06/03 12:27:30;;;;;;;0.80;0.43;;;9.30;99.90;;;;;;5050373;28;20076;-72
2022/06/03 12:30:17;;;;;;;1.15;0.75;;;9.30;99.90;;;;;;5052226;28;20098;-75
2022/06/03 12:33:20;;;;;;;0.93;0.70;;;9.30;99.90;;;;;;5051754;28;20466;-72
2022/06/03 12:35:55;;;;;;;2.42;0.70;;;9.30;99.90;;;;;;5051973;28;20032;-76
2022/06/03 12:38:23;;;;;;;1.00;0.50;;;9.30;99.90;;;;;;5051691;28;20037;-75
2022/06/03 12:40:53;;;;;;;2.67;0.95;;;9.40;99.90;;;;;;5050930;28;20258;-75
2022/06/03 12:43:30;;;;;;;0.50;0.40;;;9.30;99.90;;;;;;5052527;28;20105;-73
2022/06/03 12:46:07;;;;;;;1.15;0.60;;;9.30;99.90;;;;;;5050930;28;20025;-74
2022/06/03 12:48:51;;;;;;;1.73;0.82;;;9.20;99.90;;;;;;5051673;28;20017;-75
2022/06/03 12:51:29;;;;;;;1.00;0.55;;;9.20;99.90;;;;;;5052040;28;20040;-76
2022/06/03 12:54:06;;;;;;;1.52;0.50;;;9.20;99.90;;;;;;5050049;28;20032;-73
2022/06/03 12:57:02;;;;;;;2.30;0.50;;;9.20;99.90;;;;;;5051628;28;20123;-73
2022/06/03 12:59:51;;;;;;;0.60;0.40;;;9.20;99.90;;;;;;5051623;28;20029;-77
2022/06/03 13:02:24;;;;;;;0.70;0.50;;;9.20;99.90;;;;;;5049354;28;20102;-76
2022/06/03 13:04:58;;;;;;;0.40;0.38;;;9.20;99.90;;;;;;5050603;28;20104;-73
2022/06/03 13:07:28;;;;;;;0.73;0.32;;;9.30;99.90;;;;;;5051277;28;20021;-72
2022/06/03 13:10:20;;;;;;;0.95;0.52;;;9.30;99.90;;;;;;5050516;28;20028;-72
2022/06/03 13:12:51;;;;;;;0.60;0.60;;;9.20;99.90;;;;;;5050381;28;20398;-73
2022/06/03 13:15:18;;;;;;;0.80;0.57;;;9.20;99.90;;;;;;5050739;28;20013;-76
2022/06/03 13:20:42;;;;;;;1.95;0.70;;;9.30;99.90;;;;;;5051324;28;20029;-77
2022/06/03 13:23:26;;;;;;;0.50;0.50;;;9.20;99.90;;;;;;5052585;28;20067;-76
2022/06/03 13:25:54;;;;;;;0.70;0.50;;;9.20;99.90;;;;;;5047582;28;20074;-73
2022/06/03 13:28:37;;;;;;;1.02;0.63;;;9.30;99.90;;;;;;5050449;28;20082;-76
2022/06/03 13:31:09;;;;;;;1.77;0.50;;;9.20;99.90;;;;;;5049072;28;20489;-74
2022/06/03 13:34:02;;;;;;;1.17;0.52;;;9.10;99.90;;;;;;5051427;28;20048;-77
2022/06/03 13:36:33;;;;;;;1.02;0.57;;;9.20;99.90;;;;;;5051561;28;20033;-77
2022/06/03 13:39:01;;;;;;;1.35;0.88;;;9.20;99.90;;;;;;5051788;28;20024;-77
2022/06/03 13:44:50;;;;;;;0.68;0.50;;;9.10;99.90;;;;;;5049459;28;20119;-76
2022/06/03 13:47:22;;;;;;;0.98;0.60;;;9.10;99.90;;;;;;5050114;28;20063;-76
2022/06/03 13:50:14;;;;;;;1.40;0.73;;;9.10;99.90;;;;;;5049659;28;20025;-75
2022/06/03 13:52:54;;;;;;;2.13;0.60;;;9.10;99.90;;;;;;5050345;28;20017;-77
2022/06/03 13:55:28;;;;;;;1.20;0.95;;;9.10;99.90;;;;;;5053659;28;20148;-72
2022/06/03 13:58:06;;;;;;;0.65;0.47;;;9.10;99.90;;;;;;5054865;28;20017;-77
2022/06/03 14:00:40;;;;;;;1.65;0.70;;;9.10;99.90;;;;;;5054950;28;20024;-77
2022/06/03 14:03:15;;;;;;;1.10;0.60;;;9.20;99.90;;;;;;5055995;28;20037;-76
2022/06/03 14:05:47;;;;;;;1.15;0.50;;;9.20;99.90;;;;;;5053791;28;20101;-73
2022/06/03 14:08:25;;;;;;;1.23;0.55;;;9.20;99.90;;;;;;5053917;28;20017;-74
2022/06/03 14:10:58;;;;;;;2.13;0.60;;;9.20;99.90;;;;;;5052403;28;20028;-77
2022/06/03 14:13:37;;;;;;;0.85;0.57;;;9.20;99.90;;;;;;5054625;28;20048;-76
2022/06/03 14:16:28;;;;;;;0.43;0.40;;;9.10;99.90;;;;;;5053655;28;20013;-77
2022/06/03 14:18:55;;;;;;;1.58;0.60;;;9.10;99.90;;;;;;5052233;28;20478;-77
2022/06/03 14:21:34;;;;;;;0.50;0.40;;;9.20;99.90;;;;;;5054174;28;20028;-73
2022/06/03 14:24:22;;;;;;;1.02;0.57;;;9.20;99.90;;;;;;5067240;28;20057;-72
2022/06/03 14:27:02;;;;;;;1.98;1.10;;;9.10;99.90;;;;;;5053544;28;20106;-72
2022/06/03 14:29:42;;;;;;;2.85;1.60;;;9.10;99.90;;;;;;5053465;28;20523;-72
2022/06/03 14:32:23;;;;;;;1.50;0.70;;;9.10;99.90;;;;;;5053597;28;20036;-74
2022/06/03 14:35:06;;;;;;;1.38;0.52;;;9.00;99.90;;;;;;5054857;28;20025;-74
2022/06/03 14:37:48;;;;;;;1.13;0.70;;;9.00;99.90;;;;;;5054239;28;20037;-75
2022/06/03 14:40:23;;;;;;;1.23;0.50;;;8.90;99.90;;;;;;5053994;28;20096;-75
2022/06/03 14:42:53;;;;;;;2.13;0.50;;;8.90;99.90;;;;;;5054060;28;20386;-72
2022/06/03 14:45:22;;;;;;;0.70;0.70;;;8.90;99.90;;;;;;5055298;28;20013;-78
2022/06/03 14:48:12;;;;;;;1.27;0.70;;;8.90;99.90;;;;;;5055116;28;20028;-73
2022/06/03 14:50:50;;;;;;;1.10;0.50;;;8.90;99.90;;;;;;5053847;28;20086;-78
2022/06/03 14:53:35;;;;;;;0.90;0.50;;;8.90;99.90;;;;;;5053488;28;20049;-78